Neola, West Virginia
Current Conditions -  °F | °C
As of 8:35 PM on Thursday 27 Nov 2014 (Local Time) from KHSP Reporting Station
Light Snow Light Snow  
Wind Chill:   Ceiling: 300
Heat Index: 22°   Visibility: 3mi
Dew Point: 22°   Wind: 14mph
Humidity: 100%   Direction: 290°WNW
Pressure: 30.03"   Gusts: 21mph
Location:  37.97°N, 80.13°W
Report Text: KHSP 280135Z AUTO 29012G18KT 3SM -SN OVC003 M05/M05 A3003 RMK AO2 T10551055
Loading
Personal Weather Stations






























Interactive Weather Map New forecast layout! Learn more

10-Day Weather Forecast

Advertisements
Track Severe Weather on mobile